sensor_id;sensor_type;location;lat;lon;timestamp;P1;durP1;ratioP1;P2;durP2;ratioP2
22005;SDS011;11167;46.988;15.470;2023-05-15T00:00:58;1.40;;;1.30;;
22005;SDS011;11167;46.988;15.470;2023-05-15T00:02:59;1.72;;;1.32;;
22005;SDS011;11167;46.988;15.470;2023-05-15T00:05:01;1.98;;;1.32;;
22005;SDS011;11167;46.988;15.470;2023-05-15T00:07:03;1.40;;;1.30;;
22005;SDS011;11167;46.988;15.470;2023-05-15T00:09:04;1.42;;;1.10;;
22005;SDS011;11167;46.988;15.470;2023-05-15T00:11:05;1.20;;;1.05;;
22005;SDS011;11167;46.988;15.470;2023-05-15T00:13:06;1.85;;;1.30;;
22005;SDS011;11167;46.988;15.470;2023-05-15T00:15:08;1.22;;;1.12;;
22005;SDS011;11167;46.988;15.470;2023-05-15T00:17:09;1.40;;;1.30;;
22005;SDS011;11167;46.988;15.470;2023-05-15T00:19:11;1.35;;;1.00;;
22005;SDS011;11167;46.988;15.470;2023-05-15T00:21:12;1.60;;;1.17;;
22005;SDS011;11167;46.988;15.470;2023-05-15T00:23:13;1.57;;;1.07;;
22005;SDS011;11167;46.988;15.470;2023-05-15T00:25:15;1.17;;;1.07;;
22005;SDS011;11167;46.988;15.470;2023-05-15T00:27:18;1.30;;;1.02;;
22005;SDS011;11167;46.988;15.470;2023-05-15T00:29:19;0.98;;;0.90;;
22005;SDS011;11167;46.988;15.470;2023-05-15T00:33:41;1.17;;;1.07;;
22005;SDS011;11167;46.988;15.470;2023-05-15T00:38:04;1.60;;;1.30;;
22005;SDS011;11167;46.988;15.470;2023-05-15T00:40:06;1.27;;;1.17;;
22005;SDS011;11167;46.988;15.470;2023-05-15T00:42:09;1.37;;;1.00;;
22005;SDS011;11167;46.988;15.470;2023-05-15T00:44:11;1.45;;;1.20;;
22005;SDS011;11167;46.988;15.470;2023-05-15T00:46:14;1.60;;;1.27;;
22005;SDS011;11167;46.988;15.470;2023-05-15T00:48:18;1.30;;;1.20;;
22005;SDS011;11167;46.988;15.470;2023-05-15T00:50:21;1.65;;;1.20;;
22005;SDS011;11167;46.988;15.470;2023-05-15T00:52:23;1.10;;;1.00;;
22005;SDS011;11167;46.988;15.470;2023-05-15T00:54:26;1.22;;;1.00;;
22005;SDS011;11167;46.988;15.470;2023-05-15T00:56:33;1.35;;;1.25;;
22005;SDS011;11167;46.988;15.470;2023-05-15T00:58:35;1.57;;;1.20;;
22005;SDS011;11167;46.988;15.470;2023-05-15T01:00:37;2.72;;;1.10;;
22005;SDS011;11167;46.988;15.470;2023-05-15T01:02:39;1.10;;;1.00;;
22005;SDS011;11167;46.988;15.470;2023-05-15T01:04:40;1.20;;;1.10;;
22005;SDS011;11167;46.988;15.470;2023-05-15T01:06:41;1.50;;;1.10;;
22005;SDS011;11167;46.988;15.470;2023-05-15T01:08:44;1.10;;;1.00;;
22005;SDS011;11167;46.988;15.470;2023-05-15T01:10:49;1.52;;;1.12;;
22005;SDS011;11167;46.988;15.470;2023-05-15T01:12:52;1.57;;;1.15;;
22005;SDS011;11167;46.988;15.470;2023-05-15T01:14:56;1.15;;;1.00;;
22005;SDS011;11167;46.988;15.470;2023-05-15T01:16:57;2.30;;;1.32;;
22005;SDS011;11167;46.988;15.470;2023-05-15T01:18:58;1.45;;;1.10;;
22005;SDS011;11167;46.988;15.470;2023-05-15T01:25:53;1.25;;;0.90;;
22005;SDS011;11167;46.988;15.470;2023-05-15T01:27:53;1.20;;;1.00;;
22005;SDS011;11167;46.988;15.470;2023-05-15T01:30:00;1.45;;;1.20;;
22005;SDS011;11167;46.988;15.470;2023-05-15T01:32:15;1.37;;;1.10;;
22005;SDS011;11167;46.988;15.470;2023-05-15T01:34:16;1.50;;;1.10;;
22005;SDS011;11167;46.988;15.470;2023-05-15T01:40:40;1.10;;;1.00;;
22005;SDS011;11167;46.988;15.470;2023-05-15T01:42:46;1.57;;;1.20;;
22005;SDS011;11167;46.988;15.470;2023-05-15T01:44:54;1.57;;;0.90;;
22005;SDS011;11167;46.988;15.470;2023-05-15T01:47:00;0.85;;;0.85;;
22005;SDS011;11167;46.988;15.470;2023-05-15T01:49:04;1.40;;;1.30;;
22005;SDS011;11167;46.988;15.470;2023-05-15T01:51:08;1.60;;;1.42;;
22005;SDS011;11167;46.988;15.470;2023-05-15T01:53:11;1.30;;;1.12;;
22005;SDS011;11167;46.988;15.470;2023-05-15T01:55:14;1.35;;;1.25;;
22005;SDS011;11167;46.988;15.470;2023-05-15T01:57:16;2.17;;;1.32;;
22005;SDS011;11167;46.988;15.470;2023-05-15T01:59:19;1.70;;;1.22;;
22005;SDS011;11167;46.988;15.470;2023-05-15T02:01:21;1.40;;;1.20;;
22005;SDS011;11167;46.988;15.470;2023-05-15T02:03:23;1.62;;;1.40;;
22005;SDS011;11167;46.988;15.470;2023-05-15T02:05:25;1.50;;;1.40;;
22005;SDS011;11167;46.988;15.470;2023-05-15T02:07:26;1.50;;;1.40;;
22005;SDS011;11167;46.988;15.470;2023-05-15T02:09:28;1.40;;;1.25;;
22005;SDS011;11167;46.988;15.470;2023-05-15T02:11:31;1.65;;;1.45;;
22005;SDS011;11167;46.988;15.470;2023-05-15T02:13:34;1.40;;;1.30;;
22005;SDS011;11167;46.988;15.470;2023-05-15T02:15:36;1.40;;;1.30;;
22005;SDS011;11167;46.988;15.470;2023-05-15T02:17:39;1.52;;;1.37;;
22005;SDS011;11167;46.988;15.470;2023-05-15T02:19:40;1.25;;;1.15;;
22005;SDS011;11167;46.988;15.470;2023-05-15T02:21:41;1.50;;;1.30;;
22005;SDS011;11167;46.988;15.470;2023-05-15T02:23:42;1.25;;;1.15;;
22005;SDS011;11167;46.988;15.470;2023-05-15T02:27:54;1.47;;;1.37;;
22005;SDS011;11167;46.988;15.470;2023-05-15T02:36:50;1.82;;;1.02;;
22005;SDS011;11167;46.988;15.470;2023-05-15T02:38:54;1.37;;;1.27;;
22005;SDS011;11167;46.988;15.470;2023-05-15T02:40:57;1.70;;;1.17;;
22005;SDS011;11167;46.988;15.470;2023-05-15T02:43:00;1.10;;;1.00;;
22005;SDS011;11167;46.988;15.470;2023-05-15T02:45:02;1.32;;;1.00;;
22005;SDS011;11167;46.988;15.470;2023-05-15T02:47:05;1.70;;;1.10;;
22005;SDS011;11167;46.988;15.470;2023-05-15T02:49:07;1.20;;;1.10;;
22005;SDS011;11167;46.988;15.470;2023-05-15T02:51:10;2.08;;;1.00;;
22005;SDS011;11167;46.988;15.470;2023-05-15T02:53:12;1.27;;;1.17;;
22005;SDS011;11167;46.988;15.470;2023-05-15T02:57:16;1.47;;;1.00;;
22005;SDS011;11167;46.988;15.470;2023-05-15T02:59:17;1.20;;;1.10;;
22005;SDS011;11167;46.988;15.470;2023-05-15T03:01:19;1.50;;;1.20;;
22005;SDS011;11167;46.988;15.470;2023-05-15T03:03:20;1.20;;;1.10;;
22005;SDS011;11167;46.988;15.470;2023-05-15T03:05:21;1.75;;;1.42;;
22005;SDS011;11167;46.988;15.470;2023-05-15T03:07:22;1.37;;;1.00;;
22005;SDS011;11167;46.988;15.470;2023-05-15T03:09:23;1.37;;;1.10;;
22005;SDS011;11167;46.988;15.470;2023-05-15T03:11:24;1.07;;;0.98;;
22005;SDS011;11167;46.988;15.470;2023-05-15T03:13:26;1.10;;;1.00;;
22005;SDS011;11167;46.988;15.470;2023-05-15T03:15:27;1.77;;;1.20;;
22005;SDS011;11167;46.988;15.470;2023-05-15T03:17:28;1.70;;;1.20;;
22005;SDS011;11167;46.988;15.470;2023-05-15T03:19:29;1.20;;;0.90;;
22005;SDS011;11167;46.988;15.470;2023-05-15T03:21:30;1.27;;;1.17;;
22005;SDS011;11167;46.988;15.470;2023-05-15T03:23:31;1.07;;;0.98;;
22005;SDS011;11167;46.988;15.470;2023-05-15T03:25:32;1.98;;;1.00;;
22005;SDS011;11167;46.988;15.470;2023-05-15T03:27:33;1.55;;;1.10;;
22005;SDS011;11167;46.988;15.470;2023-05-15T03:29:35;1.35;;;1.20;;
22005;SDS011;11167;46.988;15.470;2023-05-15T03:31:37;1.85;;;1.00;;
22005;SDS011;11167;46.988;15.470;2023-05-15T03:33:39;1.32;;;1.00;;
22005;SDS011;11167;46.988;15.470;2023-05-15T03:35:40;1.42;;;0.90;;
22005;SDS011;11167;46.988;15.470;2023-05-15T03:37:41;1.47;;;1.20;;
22005;SDS011;11167;46.988;15.470;2023-05-15T03:39:45;1.22;;;1.10;;
22005;SDS011;11167;46.988;15.470;2023-05-15T03:41:46;1.15;;;1.05;;
22005;SDS011;11167;46.988;15.470;2023-05-15T03:43:47;1.00;;;0.90;;
22005;SDS011;11167;46.988;15.470;2023-05-15T03:45:49;1.52;;;1.30;;
22005;SDS011;11167;46.988;15.470;2023-05-15T03:47:50;1.50;;;1.32;;
22005;SDS011;11167;46.988;15.470;2023-05-15T03:49:51;2.15;;;1.32;;
22005;SDS011;11167;46.988;15.470;2023-05-15T03:51:53;1.30;;;1.20;;
22005;SDS011;11167;46.988;15.470;2023-05-15T03:53:56;1.32;;;1.20;;
22005;SDS011;11167;46.988;15.470;2023-05-15T03:55:57;1.30;;;1.20;;
22005;SDS011;11167;46.988;15.470;2023-05-15T03:57:58;1.52;;;1.10;;
22005;SDS011;11167;46.988;15.470;2023-05-15T03:59:59;1.10;;;1.00;;
22005;SDS011;11167;46.988;15.470;2023-05-15T04:02:02;1.27;;;1.12;;
22005;SDS011;11167;46.988;15.470;2023-05-15T04:04:03;1.30;;;1.15;;
22005;SDS011;11167;46.988;15.470;2023-05-15T04:06:05;1.00;;;0.95;;
22005;SDS011;11167;46.988;15.470;2023-05-15T04:08:06;1.10;;;1.00;;
22005;SDS011;11167;46.988;15.470;2023-05-15T04:10:09;1.22;;;1.12;;
22005;SDS011;11167;46.988;15.470;2023-05-15T04:12:10;1.35;;;1.25;;
22005;SDS011;11167;46.988;15.470;2023-05-15T04:14:11;1.20;;;1.10;;
22005;SDS011;11167;46.988;15.470;2023-05-15T04:16:13;1.30;;;1.20;;
22005;SDS011;11167;46.988;15.470;2023-05-15T04:18:14;1.17;;;1.05;;
22005;SDS011;11167;46.988;15.470;2023-05-15T04:20:16;1.45;;;1.12;;
22005;SDS011;11167;46.988;15.470;2023-05-15T04:22:18;1.40;;;1.30;;
22005;SDS011;11167;46.988;15.470;2023-05-15T04:24:19;1.40;;;1.25;;
22005;SDS011;11167;46.988;15.470;2023-05-15T04:26:20;1.17;;;0.98;;
22005;SDS011;11167;46.988;15.470;2023-05-15T04:28:22;1.15;;;1.05;;
22005;SDS011;11167;46.988;15.470;2023-05-15T04:30:23;1.32;;;1.22;;
22005;SDS011;11167;46.988;15.470;2023-05-15T04:32:24;1.12;;;1.02;;
22005;SDS011;11167;46.988;15.470;2023-05-15T04:34:27;1.30;;;1.20;;
22005;SDS011;11167;46.988;15.470;2023-05-15T04:36:28;1.32;;;1.22;;
22005;SDS011;11167;46.988;15.470;2023-05-15T04:38:29;1.25;;;1.15;;
22005;SDS011;11167;46.988;15.470;2023-05-15T04:40:30;1.50;;;1.40;;
22005;SDS011;11167;46.988;15.470;2023-05-15T04:42:32;1.60;;;1.50;;
22005;SDS011;11167;46.988;15.470;2023-05-15T04:44:33;2.20;;;1.62;;
22005;SDS011;11167;46.988;15.470;2023-05-15T04:46:34;1.67;;;1.57;;
22005;SDS011;11167;46.988;15.470;2023-05-15T04:48:36;1.60;;;1.50;;
22005;SDS011;11167;46.988;15.470;2023-05-15T04:50:37;1.77;;;1.65;;
22005;SDS011;11167;46.988;15.470;2023-05-15T04:52:38;1.62;;;1.52;;
22005;SDS011;11167;46.988;15.470;2023-05-15T04:54:40;1.80;;;1.70;;
22005;SDS011;11167;46.988;15.470;2023-05-15T04:56:41;1.70;;;1.60;;
22005;SDS011;11167;46.988;15.470;2023-05-15T04:58:42;2.02;;;1.75;;
22005;SDS011;11167;46.988;15.470;2023-05-15T05:00:43;1.70;;;1.60;;
22005;SDS011;11167;46.988;15.470;2023-05-15T05:02:45;1.57;;;1.47;;
22005;SDS011;11167;46.988;15.470;2023-05-15T05:04:46;2.40;;;1.92;;
22005;SDS011;11167;46.988;15.470;2023-05-15T05:06:47;1.98;;;1.80;;
22005;SDS011;11167;46.988;15.470;2023-05-15T05:08:49;2.10;;;1.90;;
22005;SDS011;11167;46.988;15.470;2023-05-15T05:10:54;2.33;;;2.12;;
22005;SDS011;11167;46.988;15.470;2023-05-15T05:12:58;3.05;;;2.30;;
22005;SDS011;11167;46.988;15.470;2023-05-15T05:15:00;2.50;;;2.15;;
22005;SDS011;11167;46.988;15.470;2023-05-15T05:17:01;2.20;;;2.00;;
22005;SDS011;11167;46.988;15.470;2023-05-15T05:19:03;2.30;;;2.10;;
22005;SDS011;11167;46.988;15.470;2023-05-15T05:21:04;2.00;;;1.82;;
22005;SDS011;11167;46.988;15.470;2023-05-15T05:23:05;2.72;;;2.15;;
22005;SDS011;11167;46.988;15.470;2023-05-15T05:25:07;2.40;;;2.20;;
22005;SDS011;11167;46.988;15.470;2023-05-15T05:27:08;3.33;;;2.20;;
22005;SDS011;11167;46.988;15.470;2023-05-15T05:29:09;2.30;;;2.10;;
22005;SDS011;11167;46.988;15.470;2023-05-15T05:31:10;2.20;;;2.00;;
22005;SDS011;11167;46.988;15.470;2023-05-15T05:33:11;2.45;;;2.25;;
22005;SDS011;11167;46.988;15.470;2023-05-15T05:35:12;2.58;;;2.12;;
22005;SDS011;11167;46.988;15.470;2023-05-15T05:37:13;2.47;;;2.27;;
22005;SDS011;11167;46.988;15.470;2023-05-15T05:39:15;2.65;;;2.10;;
22005;SDS011;11167;46.988;15.470;2023-05-15T05:41:16;2.10;;;1.90;;
22005;SDS011;11167;46.988;15.470;2023-05-15T05:43:19;2.27;;;2.08;;
22005;SDS011;11167;46.988;15.470;2023-05-15T05:45:20;3.00;;;2.70;;
22005;SDS011;11167;46.988;15.470;2023-05-15T05:47:21;3.27;;;2.37;;
22005;SDS011;11167;46.988;15.470;2023-05-15T05:49:22;2.77;;;2.50;;
22005;SDS011;11167;46.988;15.470;2023-05-15T05:51:24;2.72;;;2.47;;
22005;SDS011;11167;46.988;15.470;2023-05-15T05:53:25;4.12;;;2.98;;
22005;SDS011;11167;46.988;15.470;2023-05-15T05:55:27;2.95;;;2.70;;
22005;SDS011;11167;46.988;15.470;2023-05-15T05:57:28;2.70;;;2.50;;
22005;SDS011;11167;46.988;15.470;2023-05-15T05:59:30;2.77;;;2.58;;
22005;SDS011;11167;46.988;15.470;2023-05-15T06:01:31;2.92;;;2.62;;
22005;SDS011;11167;46.988;15.470;2023-05-15T06:03:33;3.00;;;2.75;;
22005;SDS011;11167;46.988;15.470;2023-05-15T06:05:34;3.22;;;2.92;;
22005;SDS011;11167;46.988;15.470;2023-05-15T06:07:35;3.65;;;3.35;;
22005;SDS011;11167;46.988;15.470;2023-05-15T06:09:36;3.10;;;2.80;;
22005;SDS011;11167;46.988;15.470;2023-05-15T06:11:37;3.60;;;3.10;;
22005;SDS011;11167;46.988;15.470;2023-05-15T06:13:38;4.08;;;2.85;;
22005;SDS011;11167;46.988;15.470;2023-05-15T06:15:41;3.92;;;3.52;;
22005;SDS011;11167;46.988;15.470;2023-05-15T06:17:44;3.67;;;3.15;;
22005;SDS011;11167;46.988;15.470;2023-05-15T06:19:45;3.50;;;3.20;;
22005;SDS011;11167;46.988;15.470;2023-05-15T06:21:46;3.60;;;3.30;;
22005;SDS011;11167;46.988;15.470;2023-05-15T06:23:48;3.10;;;2.80;;
22005;SDS011;11167;46.988;15.470;2023-05-15T06:25:49;4.03;;;3.62;;
22005;SDS011;11167;46.988;15.470;2023-05-15T06:27:50;4.00;;;3.30;;
22005;SDS011;11167;46.988;15.470;2023-05-15T06:29:51;3.70;;;3.35;;
22005;SDS011;11167;46.988;15.470;2023-05-15T06:31:52;4.12;;;3.60;;
22005;SDS011;11167;46.988;15.470;2023-05-15T06:33:54;4.33;;;3.55;;
22005;SDS011;11167;46.988;15.470;2023-05-15T06:35:55;4.28;;;3.80;;
22005;SDS011;11167;46.988;15.470;2023-05-15T06:37:56;4.47;;;3.72;;
22005;SDS011;11167;46.988;15.470;2023-05-15T06:39:57;5.45;;;3.90;;
22005;SDS011;11167;46.988;15.470;2023-05-15T06:41:58;4.05;;;3.65;;
22005;SDS011;11167;46.988;15.470;2023-05-15T06:44:00;4.08;;;3.67;;
22005;SDS011;11167;46.988;15.470;2023-05-15T06:46:02;4.00;;;3.60;;
22005;SDS011;11167;46.988;15.470;2023-05-15T06:48:03;3.95;;;3.60;;
22005;SDS011;11167;46.988;15.470;2023-05-15T06:50:04;4.40;;;3.95;;
22005;SDS011;11167;46.988;15.470;2023-05-15T06:52:06;4.50;;;3.90;;
22005;SDS011;11167;46.988;15.470;2023-05-15T06:54:14;3.62;;;3.33;;
22005;SDS011;11167;46.988;15.470;2023-05-15T06:56:15;3.40;;;3.10;;
22005;SDS011;11167;46.988;15.470;2023-05-15T06:58:16;4.42;;;3.40;;
22005;SDS011;11167;46.988;15.470;2023-05-15T07:00:17;3.40;;;3.10;;
22005;SDS011;11167;46.988;15.470;2023-05-15T07:02:19;4.47;;;4.05;;
22005;SDS011;11167;46.988;15.470;2023-05-15T07:04:20;3.87;;;3.12;;
22005;SDS011;11167;46.988;15.470;2023-05-15T07:06:21;3.20;;;2.92;;
22005;SDS011;11167;46.988;15.470;2023-05-15T07:08:22;3.52;;;3.10;;
22005;SDS011;11167;46.988;15.470;2023-05-15T07:10:24;3.60;;;3.27;;
22005;SDS011;11167;46.988;15.470;2023-05-15T07:12:25;3.42;;;3.12;;
22005;SDS011;11167;46.988;15.470;2023-05-15T07:14:26;3.40;;;3.10;;
22005;SDS011;11167;46.988;15.470;2023-05-15T07:16:27;4.42;;;3.37;;
22005;SDS011;11167;46.988;15.470;2023-05-15T07:18:28;3.60;;;3.30;;
22005;SDS011;11167;46.988;15.470;2023-05-15T07:20:29;3.85;;;3.40;;
22005;SDS011;11167;46.988;15.470;2023-05-15T07:22:30;3.52;;;2.80;;
22005;SDS011;11167;46.988;15.470;2023-05-15T07:24:31;3.12;;;2.70;;
22005;SDS011;11167;46.988;15.470;2023-05-15T07:26:32;3.05;;;2.60;;
22005;SDS011;11167;46.988;15.470;2023-05-15T07:28:34;3.25;;;2.60;;
22005;SDS011;11167;46.988;15.470;2023-05-15T07:30:35;3.30;;;2.77;;
22005;SDS011;11167;46.988;15.470;2023-05-15T07:32:36;4.03;;;2.87;;
22005;SDS011;11167;46.988;15.470;2023-05-15T07:34:37;2.75;;;2.42;;
22005;SDS011;11167;46.988;15.470;2023-05-15T07:36:40;2.90;;;2.60;;
22005;SDS011;11167;46.988;15.470;2023-05-15T07:38:41;2.80;;;2.17;;
22005;SDS011;11167;46.988;15.470;2023-05-15T07:40:42;3.33;;;2.15;;
22005;SDS011;11167;46.988;15.470;2023-05-15T07:42:44;2.40;;;2.12;;
22005;SDS011;11167;46.988;15.470;2023-05-15T07:44:45;2.87;;;2.15;;
22005;SDS011;11167;46.988;15.470;2023-05-15T07:46:46;2.47;;;2.20;;
22005;SDS011;11167;46.988;15.470;2023-05-15T07:48:47;2.30;;;2.02;;
22005;SDS011;11167;46.988;15.470;2023-05-15T07:50:48;2.10;;;1.85;;
22005;SDS011;11167;46.988;15.470;2023-05-15T07:52:51;2.08;;;1.87;;
22005;SDS011;11167;46.988;15.470;2023-05-15T07:54:52;2.30;;;1.67;;
22005;SDS011;11167;46.988;15.470;2023-05-15T07:56:53;1.60;;;1.50;;
22005;SDS011;11167;46.988;15.470;2023-05-15T07:58:55;1.57;;;1.47;;
22005;SDS011;11167;46.988;15.470;2023-05-15T08:00:56;2.00;;;1.60;;
22005;SDS011;11167;46.988;15.470;2023-05-15T08:02:58;1.67;;;1.30;;
22005;SDS011;11167;46.988;15.470;2023-05-15T08:05:00;1.30;;;1.20;;
22005;SDS011;11167;46.988;15.470;2023-05-15T08:07:01;1.57;;;1.25;;
22005;SDS011;11167;46.988;15.470;2023-05-15T08:09:03;1.47;;;1.20;;
22005;SDS011;11167;46.988;15.470;2023-05-15T08:11:04;1.60;;;1.20;;
22005;SDS011;11167;46.988;15.470;2023-05-15T08:13:05;1.10;;;1.00;;
22005;SDS011;11167;46.988;15.470;2023-05-15T08:15:06;1.25;;;1.12;;
22005;SDS011;11167;46.988;15.470;2023-05-15T08:17:08;2.58;;;1.00;;
22005;SDS011;11167;46.988;15.470;2023-05-15T08:19:09;1.45;;;1.10;;
22005;SDS011;11167;46.988;15.470;2023-05-15T08:21:10;1.30;;;1.05;;
22005;SDS011;11167;46.988;15.470;2023-05-15T08:23:12;1.45;;;1.00;;
22005;SDS011;11167;46.988;15.470;2023-05-15T08:25:13;1.30;;;1.20;;
22005;SDS011;11167;46.988;15.470;2023-05-15T08:27:14;1.30;;;0.90;;
22005;SDS011;11167;46.988;15.470;2023-05-15T08:29:15;1.10;;;0.90;;
22005;SDS011;11167;46.988;15.470;2023-05-15T08:31:16;1.12;;;1.00;;
22005;SDS011;11167;46.988;15.470;2023-05-15T08:33:17;1.45;;;1.00;;
22005;SDS011;11167;46.988;15.470;2023-05-15T08:35:18;1.35;;;1.10;;
22005;SDS011;11167;46.988;15.470;2023-05-15T08:37:19;1.45;;;1.05;;
22005;SDS011;11167;46.988;15.470;2023-05-15T08:39:21;0.72;;;0.72;;
22005;SDS011;11167;46.988;15.470;2023-05-15T08:41:35;1.60;;;0.95;;
22005;SDS011;11167;46.988;15.470;2023-05-15T08:43:34;0.80;;;0.80;;
22005;SDS011;11167;46.988;15.470;2023-05-15T08:45:36;1.85;;;0.98;;
22005;SDS011;11167;46.988;15.470;2023-05-15T08:47:38;1.25;;;0.90;;
22005;SDS011;11167;46.988;15.470;2023-05-15T08:51:53;0.80;;;0.70;;
22005;SDS011;11167;46.988;15.470;2023-05-15T08:53:55;0.88;;;0.75;;
22005;SDS011;11167;46.988;15.470;2023-05-15T08:55:56;0.93;;;0.88;;
22005;SDS011;11167;46.988;15.470;2023-05-15T08:57:57;0.80;;;0.72;;
22005;SDS011;11167;46.988;15.470;2023-05-15T08:59:59;0.80;;;0.80;;
22005;SDS011;11167;46.988;15.470;2023-05-15T09:02:00;1.30;;;0.90;;
22005;SDS011;11167;46.988;15.470;2023-05-15T09:04:02;1.65;;;0.88;;
22005;SDS011;11167;46.988;15.470;2023-05-15T09:06:04;1.40;;;0.90;;
22005;SDS011;11167;46.988;15.470;2023-05-15T09:08:07;0.50;;;0.50;;
22005;SDS011;11167;46.988;15.470;2023-05-15T09:10:09;1.47;;;1.00;;
22005;SDS011;11167;46.988;15.470;2023-05-15T09:12:11;1.57;;;0.80;;
22005;SDS011;11167;46.988;15.470;2023-05-15T09:14:17;0.82;;;0.70;;
22005;SDS011;11167;46.988;15.470;2023-05-15T09:16:19;0.93;;;0.70;;
22005;SDS011;11167;46.988;15.470;2023-05-15T09:18:21;1.72;;;0.75;;
22005;SDS011;11167;46.988;15.470;2023-05-15T09:20:29;0.72;;;0.72;;
22005;SDS011;11167;46.988;15.470;2023-05-15T09:22:34;0.93;;;0.72;;
22005;SDS011;11167;46.988;15.470;2023-05-15T09:24:36;0.70;;;0.60;;
22005;SDS011;11167;46.988;15.470;2023-05-15T09:26:37;0.70;;;0.70;;
22005;SDS011;11167;46.988;15.470;2023-05-15T09:28:38;0.90;;;0.80;;
22005;SDS011;11167;46.988;15.470;2023-05-15T09:30:40;0.60;;;0.60;;
22005;SDS011;11167;46.988;15.470;2023-05-15T09:32:42;1.17;;;0.80;;
22005;SDS011;11167;46.988;15.470;2023-05-15T09:34:43;1.07;;;0.68;;
22005;SDS011;11167;46.988;15.470;2023-05-15T09:36:45;0.95;;;0.80;;
22005;SDS011;11167;46.988;15.470;2023-05-15T09:38:46;0.60;;;0.60;;
22005;SDS011;11167;46.988;15.470;2023-05-15T09:40:49;0.50;;;0.50;;
22005;SDS011;11167;46.988;15.470;2023-05-15T09:42:51;1.00;;;0.60;;
22005;SDS011;11167;46.988;15.470;2023-05-15T09:44:53;0.60;;;0.60;;
22005;SDS011;11167;46.988;15.470;2023-05-15T09:46:54;0.50;;;0.47;;
22005;SDS011;11167;46.988;15.470;2023-05-15T09:48:56;0.98;;;0.57;;
22005;SDS011;11167;46.988;15.470;2023-05-15T09:50:57;0.60;;;0.60;;
22005;SDS011;11167;46.988;15.470;2023-05-15T09:52:58;0.90;;;0.68;;
22005;SDS011;11167;46.988;15.470;2023-05-15T09:54:59;0.50;;;0.50;;
22005;SDS011;11167;46.988;15.470;2023-05-15T09:57:10;0.53;;;0.53;;
22005;SDS011;11167;46.988;15.470;2023-05-15T09:59:13;0.60;;;0.60;;
22005;SDS011;11167;46.988;15.470;2023-05-15T10:01:15;0.50;;;0.50;;
22005;SDS011;11167;46.988;15.470;2023-05-15T10:03:21;0.60;;;0.50;;
22005;SDS011;11167;46.988;15.470;2023-05-15T10:05:25;0.60;;;0.40;;
22005;SDS011;11167;46.988;15.470;2023-05-15T10:07:32;0.40;;;0.40;;
22005;SDS011;11167;46.988;15.470;2023-05-15T10:09:35;0.60;;;0.57;;
22005;SDS011;11167;46.988;15.470;2023-05-15T10:11:36;0.40;;;0.40;;
22005;SDS011;11167;46.988;15.470;2023-05-15T10:13:39;0.28;;;0.28;;
22005;SDS011;11167;46.988;15.470;2023-05-15T10:15:40;0.40;;;0.37;;
22005;SDS011;11167;46.988;15.470;2023-05-15T10:17:42;0.45;;;0.45;;
22005;SDS011;11167;46.988;15.470;2023-05-15T10:19:46;0.50;;;0.50;;
22005;SDS011;11167;46.988;15.470;2023-05-15T10:21:50;0.55;;;0.40;;
22005;SDS011;11167;46.988;15.470;2023-05-15T10:23:54;0.50;;;0.40;;
22005;SDS011;11167;46.988;15.470;2023-05-15T10:26:00;0.57;;;0.40;;
22005;SDS011;11167;46.988;15.470;2023-05-15T10:28:03;0.40;;;0.40;;
22005;SDS011;11167;46.988;15.470;2023-05-15T10:30:10;0.40;;;0.40;;
22005;SDS011;11167;46.988;15.470;2023-05-15T10:32:12;0.53;;;0.50;;
22005;SDS011;11167;46.988;15.470;2023-05-15T10:34:14;0.37;;;0.30;;
22005;SDS011;11167;46.988;15.470;2023-05-15T10:36:17;0.98;;;0.50;;
22005;SDS011;11167;46.988;15.470;2023-05-15T10:38:19;0.42;;;0.42;;
22005;SDS011;11167;46.988;15.470;2023-05-15T10:40:21;0.85;;;0.50;;
22005;SDS011;11167;46.988;15.470;2023-05-15T10:42:24;1.17;;;0.50;;
22005;SDS011;11167;46.988;15.470;2023-05-15T10:44:26;0.20;;;0.20;;
22005;SDS011;11167;46.988;15.470;2023-05-15T10:46:27;0.93;;;0.40;;
22005;SDS011;11167;46.988;15.470;2023-05-15T10:48:33;0.70;;;0.40;;
22005;SDS011;11167;46.988;15.470;2023-05-15T10:50:36;0.35;;;0.30;;
22005;SDS011;11167;46.988;15.470;2023-05-15T10:52:38;0.40;;;0.30;;
22005;SDS011;11167;46.988;15.470;2023-05-15T10:54:39;0.17;;;0.17;;
22005;SDS011;11167;46.988;15.470;2023-05-15T10:56:40;0.20;;;0.20;;
22005;SDS011;11167;46.988;15.470;2023-05-15T10:58:43;0.20;;;0.20;;
22005;SDS011;11167;46.988;15.470;2023-05-15T11:00:48;0.35;;;0.20;;
22005;SDS011;11167;46.988;15.470;2023-05-15T11:02:50;2.52;;;0.40;;
22005;SDS011;11167;46.988;15.470;2023-05-15T11:04:54;0.42;;;0.20;;
22005;SDS011;11167;46.988;15.470;2023-05-15T11:07:09;0.20;;;0.20;;
22005;SDS011;11167;46.988;15.470;2023-05-15T11:16:10;0.45;;;0.37;;
22005;SDS011;11167;46.988;15.470;2023-05-15T11:18:12;0.20;;;0.20;;
22005;SDS011;11167;46.988;15.470;2023-05-15T11:20:13;1.20;;;0.50;;
22005;SDS011;11167;46.988;15.470;2023-05-15T11:24:25;0.33;;;0.33;;
22005;SDS011;11167;46.988;15.470;2023-05-15T11:26:31;0.20;;;0.20;;
22005;SDS011;11167;46.988;15.470;2023-05-15T11:28:39;0.20;;;0.20;;
22005;SDS011;11167;46.988;15.470;2023-05-15T11:30:38;0.20;;;0.20;;
22005;SDS011;11167;46.988;15.470;2023-05-15T11:34:58;0.30;;;0.10;;
22005;SDS011;11167;46.988;15.470;2023-05-15T11:36:58;0.33;;;0.20;;
22005;SDS011;11167;46.988;15.470;2023-05-15T11:39:00;0.10;;;0.10;;
22005;SDS011;11167;46.988;15.470;2023-05-15T11:41:01;0.98;;;0.20;;
22005;SDS011;11167;46.988;15.470;2023-05-15T11:43:04;0.10;;;0.10;;
22005;SDS011;11167;46.988;15.470;2023-05-15T11:45:08;0.10;;;0.10;;
22005;SDS011;11167;46.988;15.470;2023-05-15T11:47:10;0.10;;;0.10;;
22005;SDS011;11167;46.988;15.470;2023-05-15T11:49:11;0.17;;;0.17;;
22005;SDS011;11167;46.988;15.470;2023-05-15T11:51:14;0.08;;;0.08;;
22005;SDS011;11167;46.988;15.470;2023-05-15T11:53:21;0.42;;;0.15;;
22005;SDS011;11167;46.988;15.470;2023-05-15T11:55:23;0.13;;;0.13;;
22005;SDS011;11167;46.988;15.470;2023-05-15T11:57:25;0.40;;;0.10;;
22005;SDS011;11167;46.988;15.470;2023-05-15T11:59:26;0.20;;;0.20;;
22005;SDS011;11167;46.988;15.470;2023-05-15T12:01:37;0.20;;;0.20;;
22005;SDS011;11167;46.988;15.470;2023-05-15T12:03:33;0.62;;;0.30;;
22005;SDS011;11167;46.988;15.470;2023-05-15T12:05:39;0.40;;;0.30;;
22005;SDS011;11167;46.988;15.470;2023-05-15T12:07:41;0.25;;;0.25;;
22005;SDS011;11167;46.988;15.470;2023-05-15T12:09:42;0.70;;;0.40;;
22005;SDS011;11167;46.988;15.470;2023-05-15T12:11:54;1.10;;;0.60;;
22005;SDS011;11167;46.988;15.470;2023-05-15T12:13:53;0.70;;;0.33;;
22005;SDS011;11167;46.988;15.470;2023-05-15T12:15:54;0.62;;;0.40;;
22005;SDS011;11167;46.988;15.470;2023-05-15T12:17:56;0.70;;;0.40;;
22005;SDS011;11167;46.988;15.470;2023-05-15T12:19:57;2.00;;;0.40;;
22005;SDS011;11167;46.988;15.470;2023-05-15T12:22:00;1.12;;;0.42;;
22005;SDS011;11167;46.988;15.470;2023-05-15T12:24:03;0.53;;;0.30;;
22005;SDS011;11167;46.988;15.470;2023-05-15T12:26:04;1.07;;;0.60;;
22005;SDS011;11167;46.988;15.470;2023-05-15T12:28:07;0.85;;;0.50;;
22005;SDS011;11167;46.988;15.470;2023-05-15T12:30:08;0.50;;;0.40;;
22005;SDS011;11167;46.988;15.470;2023-05-15T12:32:10;0.78;;;0.40;;
22005;SDS011;11167;46.988;15.470;2023-05-15T12:34:12;0.45;;;0.33;;
22005;SDS011;11167;46.988;15.470;2023-05-15T12:36:14;0.30;;;0.30;;
22005;SDS011;11167;46.988;15.470;2023-05-15T12:38:17;0.30;;;0.30;;
22005;SDS011;11167;46.988;15.470;2023-05-15T12:40:19;0.40;;;0.40;;
22005;SDS011;11167;46.988;15.470;2023-05-15T12:42:21;0.20;;;0.20;;